This is the latest recevied weather packets stored in our database for station/object NZ3C. If no packets are shown the sender has not sent any weather packets the latest 10 day(s).
| Time | Temp. | Humidity | Pressure | Rain* | Wind** | Luminosity | Snow |
|---|---|---|---|---|---|---|---|
| 1777997887 | 25.56° C | 46% | 1019.1 hPa | 0 mm | - | 864 W/m² | - |
| 1777997585 | 26.11° C | 43% | 1019.1 hPa | 0 mm | - | 858 W/m² | - |
| 1777997282 | 25.56° C | 44% | 1019.3 hPa | 0 mm | - | 852 W/m² | - |
| 1777996980 | 25.56° C | 47% | 1019.3 hPa | 0 mm | - | 848 W/m² | - |
| 1777996676 | 25.56° C | 46% | 1019 hPa | 0 mm | - | 844 W/m² | - |
| 1777996372 | 25.56° C | 46% | 1019.4 hPa | 0 mm | - | 840 W/m² | - |
| 1777996068 | 25° C | 49% | 1019.1 hPa | 0 mm | - | 833 W/m² | - |
| 1777995765 | 25.56° C | 45% | 1019.2 hPa | 0 mm | - | 824 W/m² | - |
| 1777995461 | 25.56° C | 48% | 1019.3 hPa | 0 mm | - | 818 W/m² | - |
| 1777995158 | 25° C | 48% | 1019.2 hPa | 0 mm | - | 809 W/m² | - |
| 1777994856 | 25° C | 48% | 1019.2 hPa | 0 mm | - | 800 W/m² | - |
| 1777994552 | 25.56° C | 45% | 1019.2 hPa | 0 mm | - | 793 W/m² | - |
| 1777994252 | 25.56° C | 48% | 1019.3 hPa | 0 mm | - | 783 W/m² | - |
| 1777993950 | 25° C | 50% | 1019.1 hPa | 0 mm | - | 772 W/m² | - |
| 1777993646 | 24.44° C | 52% | 1019.2 hPa | 0 mm | - | 762 W/m² | - |
| 1777993343 | 24.44° C | 52% | 1019.4 hPa | 0 mm | - | 753 W/m² | - |
| 1777993038 | 25° C | 48% | 1019.3 hPa | 0 mm | - | 737 W/m² | - |
| 1777992737 | 24.44° C | 51% | 1019.4 hPa | 0 mm | - | 728 W/m² | - |
| 1777992434 | 24.44° C | 51% | 1019.5 hPa | 0 mm | - | 716 W/m² | - |
| 1777992132 | 24.44° C | 51% | 1019.3 hPa | 0 mm | - | 705 W/m² | - |
| 1777991829 | 23.89° C | 53% | 1019.4 hPa | 0 mm | - | 694 W/m² | - |
| 1777991526 | 23.33° C | 55% | 1019.1 hPa | 0 mm | - | 677 W/m² | - |
| 1777991223 | 23.33° C | 55% | 1019.3 hPa | 0 mm | - | 678 W/m² | - |
| 1777990921 | 23.33° C | 55% | 1019.4 hPa | 0 mm | - | 513 W/m² | - |
| 1777990618 | 23.33° C | 53% | 1019.3 hPa | 0 mm | - | 570 W/m² | - |
* Rain latest hour (hover to see other rain measurements)
** Current wind speed in m/s (hover to see current wind gust speed)